Etusivu
METAR-TAF:

METAR-TAF

Lentoasemat :

Växjö, Ruotsi

Leveyspiiri: 56-51N, Pituuspiiri: 014-50E, korkeus merenpinnasta: 199 m

Tämänhetkinen sää

Tämä raportti tehtiin 19 minuuttia sitten, kello 17.20 UTC
Tuuli 9 kn etelästä/kaakosta
Lämpötila 19°C
Kosteus 30%
Ilmanpaine 1028 hPa
Näkyvyys 10 km tai enemmän
ei pilviä alle 1500 m:ssä eikä cumulonimbus-pilviä

METAR: ESMX 201720Z 16009KT CAVOK 19/01 Q1028

Aika: 19:39 (17:39 UTC)

Sääennuste

Tämä raportti tehtiin 9 minuuttia sitten, kello 17.30 UTC
Ennuste voimassa 20. päivästä klo 18 UTC - 20. päivään klo 21 UTC
Tuuli 8 kn etelästä
Näkyvyys 10 km tai enemmän
ei pilviä alle 1500 m:ssä eikä cumulonimbus-pilviä

TAF: ESMX 201730Z 2018/2021 17008KT CAVOK

Säähavainnot ja -ennusteet yli 4000 lentoasemalta (METAR- ja TAF-raportit).

Käytössä olevat sääasemat on merkitty karttaan keltaisilla ja punaisilla pisteillä.

Aseta hiiri pisteen päälle nähdäksesi sääaseman nimen.

Klikkaa sitten nähdäksesi säähavainnot ja -ennusteet.

Kartan vaihtaminen: klikkaa mustalla rastilla varustettuja vihreitä pisteitä, niin voit zoomata sisään; viivalla varustettua vihreää pistettä, niin voit zoomata ulos tai vihreitä nuolia, niin pääset viereisille kartoille.


METAR-TAF: